Time;durP1;ratioP1;P1;durP2;ratioP2;P2;SDS_P1;SDS_P2;PMS_P1;PMS_P2;Temp;Humidity;BMP_temperature;BMP_pressure;BME280_temperature;BME280_humidity;BME280_pressure;Samples;Min_cycle;Max_cycle;Signal;HPM_P1;HPM_P2
2021/04/16 00:01:51;;;;;;;2.85;2.65;;;;;;;;;;4954120;29;20174;-75
2021/04/16 00:04:17;;;;;;;2.93;2.57;;;;;;;;;;4954229;29;20490;-74
2021/04/16 00:06:43;;;;;;;2.88;2.22;;;;;;;;;;4954087;29;20475;-78
2021/04/16 00:09:09;;;;;;;3.53;2.43;;;;;;;;;;4954288;29;20200;-77
2021/04/16 00:11:34;;;;;;;4.57;2.63;;;;;;;;;;4954009;29;20414;-78
2021/04/16 00:17:04;;;;;;;3.60;2.67;;;;;;;;;;4954514;29;20175;-77
2021/04/16 00:19:30;;;;;;;3.10;2.42;;;;;;;;;;4954166;29;20315;-80
2021/04/16 00:21:56;;;;;;;2.60;2.40;;;;;;;;;;4954350;29;20203;-80
2021/04/16 00:24:22;;;;;;;3.00;2.42;;;;;;;;;;4954326;29;20179;-80
2021/04/16 00:26:48;;;;;;;3.07;2.63;;;;;;;;;;4954117;29;20599;-78
2021/04/16 00:32:18;;;;;;;2.78;2.58;;;;;;;;;;4954090;29;20214;-73
2021/04/16 00:34:44;;;;;;;3.07;2.70;;;;;;;;;;4954167;29;20658;-73
2021/04/16 00:37:10;;;;;;;6.20;2.92;;;;;;;;;;4936926;29;20792;-78
2021/04/16 00:39:36;;;;;;;3.15;2.85;;;;;;;;;;4954392;29;20175;-78
2021/04/16 00:42:02;;;;;;;4.27;2.73;;;;;;;;;;4958121;29;20180;-75
2021/04/16 00:47:32;;;;;;;3.15;2.85;;;;;;;;;;4955752;29;20238;-79
2021/04/16 00:50:01;;;;;;;2.35;2.03;;;;;;;;;;4937167;29;20184;-77
2021/04/16 00:52:29;;;;;;;3.47;2.85;;;;;;;;;;4953945;29;20183;-78
2021/04/16 00:54:55;;;;;;;6.10;2.85;;;;;;;;;;4953688;29;20199;-77
2021/04/16 00:57:22;;;;;;;2.63;2.40;;;;;;;;;;4953947;28;20242;-81
2021/04/16 00:59:50;;;;;;;3.25;2.95;;;;;;;;;;4957538;29;20227;-80
2021/04/16 01:02:16;;;;;;;4.53;3.17;;;;;;;;;;4957666;29;20203;-80
2021/04/16 01:04:42;;;;;;;3.00;2.67;;;;;;;;;;4957639;29;20207;-75
2021/04/16 01:07:09;;;;;;;2.72;2.47;;;;;;;;;;4957450;29;20411;-75
2021/04/16 01:09:36;;;;;;;2.65;2.45;;;;;;;;;;4957538;29;20224;-74
2021/04/16 01:12:04;;;;;;;2.78;2.45;;;;;;;;;;4957338;29;20255;-79
2021/04/16 01:17:34;;;;;;;3.15;2.78;;;;;;;;;;4957414;29;20266;-78
2021/04/16 01:20:11;;;;;;;4.05;2.90;;;;;;;;;;4957501;29;20659;-81
2021/04/16 01:22:42;;;;;;;2.95;2.67;;;;;;;;;;4957166;29;20172;-82
2021/04/16 01:25:10;;;;;;;2.42;2.05;;;;;;;;;;4939900;29;20538;-81
2021/04/16 01:27:36;;;;;;;3.13;2.72;;;;;;;;;;4957137;29;20720;-81
2021/04/16 01:30:05;;;;;;;3.93;3.13;;;;;;;;;;4957216;29;20224;-79
2021/04/16 01:32:31;;;;;;;4.07;2.90;;;;;;;;;;4956849;29;20416;-81
2021/04/16 01:34:57;;;;;;;8.25;2.85;;;;;;;;;;4957060;29;20246;-78
2021/04/16 01:37:26;;;;;;;5.32;2.00;;;;;;;;;;4956637;29;20207;-79
2021/04/16 01:39:53;;;;;;;3.63;2.78;;;;;;;;;;4957326;29;20187;-81
2021/04/16 01:42:19;;;;;;;2.95;2.65;;;;;;;;;;4956849;29;20203;-77
2021/04/16 01:47:52;;;;;;;4.50;2.63;;;;;;;;;;4956888;29;20179;-81
2021/04/16 01:50:18;;;;;;;3.75;2.70;;;;;;;;;;4957022;29;20172;-78
2021/04/16 01:52:44;;;;;;;6.15;3.13;;;;;;;;;;4956688;29;20186;-81
2021/04/16 01:55:10;;;;;;;4.07;2.43;;;;;;;;;;4956760;29;20179;-78
2021/04/16 01:57:36;;;;;;;3.30;3.00;;;;;;;;;;4956374;29;20885;-78
2021/04/16 02:00:06;;;;;;;6.45;3.40;;;;;;;;;;4956855;29;20583;-77
2021/04/16 02:02:35;;;;;;;5.13;2.95;;;;;;;;;;4956570;29;20183;-82
2021/04/16 02:05:01;;;;;;;3.97;2.58;;;;;;;;;;4956761;29;20179;-75
2021/04/16 02:07:28;;;;;;;3.17;2.50;;;;;;;;;;4956476;29;20247;-82
2021/04/16 02:09:54;;;;;;;4.68;3.70;;;;;;;;;;4955375;28;20198;-81
2021/04/16 02:12:21;;;;;;;2.20;2.00;;;;;;;;;;4955927;29;20171;-77
2021/04/16 02:17:51;;;;;;;3.67;3.03;;;;;;;;;;4956251;29;20647;-81
2021/04/16 02:20:19;;;;;;;4.50;3.10;;;;;;;;;;4956314;29;20203;-80
2021/04/16 02:22:46;;;;;;;4.32;3.13;;;;;;;;;;4956015;29;20484;-78
2021/04/16 02:25:12;;;;;;;4.30;3.50;;;;;;;;;;4963649;29;20183;-75
2021/04/16 02:27:38;;;;;;;3.67;2.67;;;;;;;;;;4971240;29;20418;-77
2021/04/16 02:30:09;;;;;;;3.37;2.97;;;;;;;;;;4960166;29;20182;-79
2021/04/16 02:32:36;;;;;;;3.47;2.90;;;;;;;;;;4957001;29;20422;-79
2021/04/16 02:35:02;;;;;;;4.60;3.47;;;;;;;;;;4956808;29;20551;-79
2021/04/16 02:37:28;;;;;;;2.80;2.60;;;;;;;;;;4955748;29;20207;-81
2021/04/16 02:39:54;;;;;;;3.73;2.90;;;;;;;;;;4955798;29;20669;-80
2021/04/16 02:42:20;;;;;;;7.67;3.80;;;;;;;;;;4955824;29;20509;-78
2021/04/16 02:47:49;;;;;;;3.67;2.63;;;;;;;;;;4955857;29;20930;-75
2021/04/16 02:50:18;;;;;;;3.60;2.67;;;;;;;;;;4955682;29;20231;-81
2021/04/16 02:52:44;;;;;;;3.20;2.97;;;;;;;;;;4955607;29;20168;-76
2021/04/16 02:55:11;;;;;;;4.10;2.90;;;;;;;;;;4955651;29;20203;-78
2021/04/16 02:57:37;;;;;;;4.93;2.80;;;;;;;;;;4937935;29;20246;-78
2021/04/16 03:03:07;;;;;;;3.53;2.80;;;;;;;;;;4955891;29;20203;-76
2021/04/16 03:05:33;;;;;;;3.22;2.92;;;;;;;;;;4938135;29;20186;-76
2021/04/16 03:07:59;;;;;;;6.03;3.00;;;;;;;;;;4955718;29;20168;-80
2021/04/16 03:10:30;;;;;;;4.70;4.15;;;;;;;;;;4955199;29;20211;-74
2021/04/16 03:12:56;;;;;;;6.55;3.50;;;;;;;;;;4955343;29;20701;-81
2021/04/16 03:15:23;;;;;;;6.25;3.80;;;;;;;;;;4955555;29;20635;-80
2021/04/16 03:17:49;;;;;;;5.63;3.05;;;;;;;;;;4955463;29;20218;-77
2021/04/16 03:20:16;;;;;;;3.97;2.97;;;;;;;;;;4954994;28;20183;-77
2021/04/16 03:22:41;;;;;;;5.15;4.07;;;;;;;;;;4955277;29;20226;-78
2021/04/16 03:25:09;;;;;;;3.47;3.17;;;;;;;;;;4955216;29;20168;-76
2021/04/16 03:27:35;;;;;;;7.00;4.00;;;;;;;;;;4955294;29;20427;-78
2021/04/16 03:33:06;;;;;;;4.35;3.45;;;;;;;;;;4955316;29;20182;-79
2021/04/16 03:35:32;;;;;;;3.17;2.88;;;;;;;;;;4954812;29;20183;-77
2021/04/16 03:37:58;;;;;;;5.40;3.50;;;;;;;;;;4954994;29;20211;-80
2021/04/16 03:40:26;;;;;;;3.75;3.40;;;;;;;;;;4954957;29;20182;-79
2021/04/16 03:42:52;;;;;;;4.50;3.60;;;;;;;;;;4955729;29;20176;-78
2021/04/16 03:45:19;;;;;;;3.50;3.20;;;;;;;;;;4955586;29;20254;-76
2021/04/16 03:47:46;;;;;;;4.95;3.72;;;;;;;;;;4955199;29;20423;-74
2021/04/16 03:50:14;;;;;;;5.35;3.53;;;;;;;;;;4956341;29;20253;-75
2021/04/16 03:52:40;;;;;;;5.45;4.05;;;;;;;;;;4956425;29;20255;-76
2021/04/16 03:55:07;;;;;;;6.63;4.00;;;;;;;;;;4954779;29;20182;-73
2021/04/16 03:57:33;;;;;;;5.57;4.20;;;;;;;;;;4954523;29;20231;-78
2021/04/16 04:03:03;;;;;;;3.55;3.25;;;;;;;;;;4955033;29;20196;-79
2021/04/16 04:05:29;;;;;;;6.78;4.13;;;;;;;;;;4955066;29;20508;-77
2021/04/16 04:07:55;;;;;;;6.20;4.20;;;;;;;;;;4961805;29;20252;-72
2021/04/16 04:10:23;;;;;;;4.60;3.07;;;;;;;;;;4967201;29;20172;-78
2021/04/16 04:12:49;;;;;;;5.25;3.83;;;;;;;;;;4937833;29;20459;-73
2021/04/16 04:18:19;;;;;;;5.18;3.60;;;;;;;;;;4954656;29;20590;-77
2021/04/16 04:20:45;;;;;;;4.18;3.00;;;;;;;;;;4954396;29;20179;-78
2021/04/16 04:23:11;;;;;;;3.60;3.33;;;;;;;;;;4954862;29;20178;-81
2021/04/16 04:25:37;;;;;;;4.72;3.80;;;;;;;;;;4954579;29;20180;-78
2021/04/16 04:28:04;;;;;;;6.38;4.25;;;;;;;;;;4954553;29;20167;-79
2021/04/16 04:30:32;;;;;;;4.65;3.25;;;;;;;;;;4954527;29;20183;-78
2021/04/16 04:32:58;;;;;;;6.70;3.53;;;;;;;;;;4955292;28;20184;-81
2021/04/16 04:35:24;;;;;;;4.55;3.47;;;;;;;;;;4958356;29;20211;-79
2021/04/16 04:37:50;;;;;;;5.90;3.63;;;;;;;;;;4958078;29;20568;-79
2021/04/16 04:40:17;;;;;;;4.13;3.00;;;;;;;;;;4940856;29;20525;-73
2021/04/16 04:42:43;;;;;;;4.25;3.47;;;;;;;;;;4957766;29;20572;-72
2021/04/16 04:48:13;;;;;;;5.70;2.95;;;;;;;;;;4958187;29;20332;-77
2021/04/16 04:50:39;;;;;;;4.70;3.70;;;;;;;;;;4957905;29;20251;-75
2021/04/16 04:53:05;;;;;;;4.10;3.60;;;;;;;;;;4940717;29;20912;-81
2021/04/16 04:55:33;;;;;;;8.90;4.37;;;;;;;;;;4957832;29;20172;-80
2021/04/16 04:57:59;;;;;;;7.35;3.95;;;;;;;;;;4957591;28;20486;-74
2021/04/16 05:03:28;;;;;;;4.97;3.80;;;;;;;;;;4957325;29;20874;-76
2021/04/16 05:05:54;;;;;;;4.50;3.55;;;;;;;;;;4957449;29;20590;-78
2021/04/16 05:08:20;;;;;;;4.83;3.57;;;;;;;;;;4957739;29;20243;-79
2021/04/16 05:10:46;;;;;;;4.33;4.00;;;;;;;;;;4957597;29;20790;-76
2021/04/16 05:13:12;;;;;;;6.13;3.72;;;;;;;;;;4957176;29;20503;-77
2021/04/16 05:15:38;;;;;;;6.20;4.07;;;;;;;;;;4957237;29;20591;-79
2021/04/16 05:18:04;;;;;;;5.20;4.03;;;;;;;;;;4957408;29;20571;-79
2021/04/16 05:20:30;;;;;;;4.78;3.50;;;;;;;;;;4957102;29;20415;-81
2021/04/16 05:22:56;;;;;;;7.97;4.30;;;;;;;;;;4957166;29;20642;-77
2021/04/16 05:25:22;;;;;;;4.30;3.90;;;;;;;;;;4956857;29;20419;-74
2021/04/16 05:27:48;;;;;;;3.70;3.40;;;;;;;;;;4956937;29;20495;-74
2021/04/16 05:33:18;;;;;;;4.75;3.47;;;;;;;;;;4956728;29;20167;-74
2021/04/16 05:35:44;;;;;;;3.58;3.28;;;;;;;;;;4956510;29;20251;-75
2021/04/16 05:38:10;;;;;;;4.25;3.78;;;;;;;;;;4956636;29;20273;-77
2021/04/16 05:40:36;;;;;;;4.30;3.10;;;;;;;;;;4956959;29;20233;-80
2021/04/16 05:43:02;;;;;;;3.70;3.20;;;;;;;;;;4956649;29;20934;-78
2021/04/16 05:48:31;;;;;;;7.72;3.35;;;;;;;;;;4957834;29;20237;-76
2021/04/16 05:50:57;;;;;;;7.35;4.25;;;;;;;;;;4960017;29;20258;-75
2021/04/16 05:53:24;;;;;;;3.90;3.60;;;;;;;;;;4958083;29;20178;-74
2021/04/16 05:55:50;;;;;;;5.50;3.65;;;;;;;;;;4957064;29;20226;-78
2021/04/16 05:58:16;;;;;;;8.90;3.23;;;;;;;;;;4939379;29;20246;-81
2021/04/16 06:03:47;;;;;;;4.60;3.55;;;;;;;;;;4956735;29;20182;-81
2021/04/16 06:06:13;;;;;;;5.25;3.85;;;;;;;;;;4955716;29;20179;-80
2021/04/16 06:08:39;;;;;;;3.58;3.30;;;;;;;;;;4956165;29;20171;-81
2021/04/16 06:11:09;;;;;;;4.82;2.88;;;;;;;;;;4956700;29;20179;-83
2021/04/16 06:13:36;;;;;;;4.68;3.90;;;;;;;;;;4956417;29;20215;-81
2021/04/16 06:21:50;;;;;;;4.57;3.92;;;;;;;;;;4967878;23;20298;-77
2021/04/16 06:24:16;;;;;;;4.70;4.30;;;;;;;;;;4957445;28;20212;-81
2021/04/16 06:26:42;;;;;;;4.40;3.63;;;;;;;;;;4961285;28;20519;-74
2021/04/16 06:29:08;;;;;;;4.82;4.10;;;;;;;;;;4963047;28;20441;-74
2021/04/16 06:31:34;;;;;;;5.40;4.90;;;;;;;;;;4968125;28;20178;-80
2021/04/16 06:34:00;;;;;;;4.43;3.53;;;;;;;;;;4955720;28;20181;-75
2021/04/16 06:36:26;;;;;;;4.23;3.83;;;;;;;;;;4956815;28;20249;-76
2021/04/16 06:38:52;;;;;;;4.03;3.63;;;;;;;;;;4971672;28;20474;-76
2021/04/16 06:41:20;;;;;;;6.50;3.70;;;;;;;;;;4974402;28;20247;-80
2021/04/16 06:43:51;;;;;;;5.73;4.20;;;;;;;;;;4967912;28;20447;-74
2021/04/16 06:46:22;;;;;;;4.40;3.50;;;;;;;;;;4956239;28;20457;-75
2021/04/16 06:48:48;;;;;;;4.53;3.87;;;;;;;;;;4954979;28;20925;-75
2021/04/16 06:51:15;;;;;;;4.97;3.87;;;;;;;;;;4955117;28;20466;-77
2021/04/16 06:53:47;;;;;;;5.22;4.72;;;;;;;;;;4957986;28;20434;-74
2021/04/16 06:56:16;;;;;;;5.10;4.60;;;;;;;;;;4962378;28;20251;-77
2021/04/16 06:58:50;;;;;;;5.33;4.83;;;;;;;;;;4964376;28;20248;-77
2021/04/16 07:01:27;;;;;;;4.73;4.20;;;;;;;;;;4972510;28;20445;-76
2021/04/16 07:04:05;;;;;;;5.67;4.70;;;;;;;;;;4968242;28;20452;-82
2021/04/16 07:06:32;;;;;;;4.60;4.20;;;;;;;;;;4967313;28;20500;-78
2021/04/16 07:09:12;;;;;;;6.37;4.70;;;;;;;;;;4940417;28;20858;-74
2021/04/16 07:11:38;;;;;;;3.87;3.57;;;;;;;;;;4956471;28;20785;-80
2021/04/16 07:14:04;;;;;;;5.57;4.37;;;;;;;;;;4957823;28;20451;-81
2021/04/16 07:16:32;;;;;;;4.87;4.30;;;;;;;;;;4957663;28;20434;-78
2021/04/16 07:19:01;;;;;;;4.23;3.83;;;;;;;;;;4954060;28;20985;-77
2021/04/16 07:21:27;;;;;;;5.40;4.90;;;;;;;;;;4953085;28;20483;-74
2021/04/16 07:23:54;;;;;;;9.40;4.10;;;;;;;;;;4957296;28;20451;-74
2021/04/16 07:26:32;;;;;;;5.20;4.70;;;;;;;;;;4957714;28;20542;-79
2021/04/16 07:28:59;;;;;;;4.40;4.00;;;;;;;;;;4950394;28;20444;-75
2021/04/16 07:31:32;;;;;;;12.00;4.77;;;;;;;;;;4952556;28;20941;-78
2021/04/16 07:33:58;;;;;;;5.17;4.67;;;;;;;;;;4957862;28;20438;-78
2021/04/16 07:36:27;;;;;;;6.90;5.77;;;;;;;;;;4956768;28;20438;-73
2021/04/16 07:38:59;;;;;;;4.83;3.80;;;;;;;;;;4956909;28;20512;-74
2021/04/16 07:41:25;;;;;;;4.07;3.53;;;;;;;;;;4961087;28;20443;-76
2021/04/16 07:43:52;;;;;;;6.10;4.23;;;;;;;;;;4960669;28;20423;-73
2021/04/16 07:46:28;;;;;;;3.77;3.43;;;;;;;;;;4958348;28;20741;-74
2021/04/16 07:48:55;;;;;;;3.53;3.23;;;;;;;;;;4961863;28;20441;-74
2021/04/16 07:51:32;;;;;;;5.73;3.17;;;;;;;;;;4958778;28;20462;-74
2021/04/16 07:54:19;;;;;;;3.53;3.20;;;;;;;;;;4962795;28;20438;-79
2021/04/16 07:56:45;;;;;;;3.77;3.47;;;;;;;;;;4959799;28;20481;-74
2021/04/16 07:59:15;;;;;;;4.83;4.00;;;;;;;;;;4957830;28;20520;-75
2021/04/16 08:01:45;;;;;;;3.83;3.53;;;;;;;;;;4964594;28;20431;-77
2021/04/16 08:04:20;;;;;;;5.70;4.40;;;;;;;;;;4968624;28;20465;-78
2021/04/16 08:06:48;;;;;;;6.10;4.40;;;;;;;;;;4957987;28;20468;-81
2021/04/16 08:09:14;;;;;;;4.85;4.38;;;;;;;;;;4946936;28;20482;-76
2021/04/16 08:11:41;;;;;;;4.47;4.07;;;;;;;;;;4961823;28;20602;-79
2021/04/16 08:14:11;;;;;;;5.15;4.50;;;;;;;;;;4960327;28;20198;-76
2021/04/16 08:16:41;;;;;;;4.93;4.07;;;;;;;;;;4960899;28;20196;-76
2021/04/16 08:19:20;;;;;;;5.35;4.82;;;;;;;;;;4962205;28;20663;-80
2021/04/16 08:21:49;;;;;;;5.28;3.67;;;;;;;;;;4962484;28;20261;-79
2021/04/16 08:24:29;;;;;;;8.75;4.05;;;;;;;;;;4959461;28;20718;-77
2021/04/16 08:27:15;;;;;;;6.13;3.67;;;;;;;;;;4941839;28;20190;-78
2021/04/16 08:29:44;;;;;;;3.72;3.42;;;;;;;;;;4961279;28;20252;-78
2021/04/16 08:32:29;;;;;;;4.72;3.33;;;;;;;;;;4958540;28;20194;-79
2021/04/16 08:35:07;;;;;;;3.05;2.85;;;;;;;;;;4941892;28;20221;-78
2021/04/16 08:37:45;;;;;;;3.28;3.00;;;;;;;;;;4955294;28;20219;-74
2021/04/16 08:40:12;;;;;;;7.20;2.65;;;;;;;;;;4957859;28;20206;-74
2021/04/16 08:42:39;;;;;;;4.53;4.13;;;;;;;;;;4962117;28;20194;-80
2021/04/16 08:45:08;;;;;;;5.57;4.10;;;;;;;;;;4957690;28;20237;-79
2021/04/16 08:47:40;;;;;;;3.63;3.17;;;;;;;;;;4941408;28;20566;-78
2021/04/16 08:50:06;;;;;;;4.03;3.72;;;;;;;;;;4958761;28;20215;-79
2021/04/16 08:52:38;;;;;;;4.10;3.47;;;;;;;;;;4959720;28;20187;-79
2021/04/16 08:55:14;;;;;;;4.45;4.05;;;;;;;;;;4959497;28;20192;-76
2021/04/16 08:58:07;;;;;;;4.45;4.05;;;;;;;;;;4960985;28;20303;-83
2021/04/16 09:00:34;;;;;;;4.68;4.28;;;;;;;;;;4957416;28;20200;-76
2021/04/16 09:03:02;;;;;;;4.30;3.90;;;;;;;;;;4961111;28;20197;-80
2021/04/16 09:05:29;;;;;;;4.40;4.10;;;;;;;;;;4957492;28;20197;-73
2021/04/16 09:07:59;;;;;;;5.25;4.75;;;;;;;;;;4958396;28;20672;-76
2021/04/16 09:10:24;;;;;;;4.00;3.70;;;;;;;;;;4960025;28;20198;-73
2021/04/16 09:12:54;;;;;;;9.60;4.30;;;;;;;;;;4960281;28;20190;-75
2021/04/16 09:15:20;;;;;;;5.07;4.43;;;;;;;;;;4961133;28;20438;-75
2021/04/16 09:17:52;;;;;;;6.10;4.33;;;;;;;;;;4959175;28;20220;-78
2021/04/16 09:20:23;;;;;;;9.63;4.63;;;;;;;;;;4958530;28;20467;-82
2021/04/16 09:22:50;;;;;;;4.20;3.83;;;;;;;;;;4958740;28;20446;-82
2021/04/16 09:25:28;;;;;;;5.03;3.73;;;;;;;;;;4943230;28;20341;-75
2021/04/16 09:27:54;;;;;;;4.43;4.10;;;;;;;;;;4957826;28;20581;-73
2021/04/16 09:30:22;;;;;;;4.60;4.23;;;;;;;;;;4960638;28;20536;-73
2021/04/16 09:32:49;;;;;;;4.30;3.90;;;;;;;;;;4960350;28;20454;-75
2021/04/16 09:35:18;;;;;;;4.43;4.03;;;;;;;;;;4958416;28;20439;-80
2021/04/16 09:37:46;;;;;;;10.10;4.27;;;;;;;;;;4953419;28;20477;-79
2021/04/16 09:40:19;;;;;;;4.50;3.60;;;;;;;;;;4939558;28;20921;-76
2021/04/16 09:42:49;;;;;;;5.63;4.07;;;;;;;;;;4957143;28;20439;-73
2021/04/16 09:45:30;;;;;;;4.83;4.27;;;;;;;;;;4955365;28;20465;-79
2021/04/16 09:47:59;;;;;;;5.03;4.63;;;;;;;;;;4957255;28;20435;-75
2021/04/16 09:50:31;;;;;;;4.60;4.20;;;;;;;;;;4958127;28;20914;-79
2021/04/16 09:53:17;;;;;;;4.53;4.03;;;;;;;;;;4958877;28;20477;-76
2021/04/16 09:55:46;;;;;;;4.30;4.00;;;;;;;;;;4969148;28;20518;-77
2021/04/16 09:58:13;;;;;;;4.80;4.40;;;;;;;;;;4958462;28;20471;-80
2021/04/16 10:00:59;;;;;;;4.07;3.77;;;;;;;;;;4960888;28;20442;-78
2021/04/16 10:03:44;;;;;;;4.50;4.10;;;;;;;;;;4958950;28;20493;-81
2021/04/16 10:06:19;;;;;;;4.73;4.33;;;;;;;;;;4960072;28;20443;-77
2021/04/16 10:08:45;;;;;;;5.37;4.13;;;;;;;;;;4954435;28;20453;-77
2021/04/16 10:11:13;;;;;;;4.70;4.30;;;;;;;;;;4955223;28;20957;-78
2021/04/16 10:13:40;;;;;;;4.90;4.50;;;;;;;;;;4957131;28;21032;-80
2021/04/16 10:16:20;;;;;;;5.15;4.75;;;;;;;;;;4956053;28;20430;-81
2021/04/16 10:18:46;;;;;;;4.18;3.88;;;;;;;;;;4954194;28;20306;-79
2021/04/16 10:21:15;;;;;;;4.40;4.00;;;;;;;;;;4960356;28;20293;-74
2021/04/16 10:23:43;;;;;;;4.83;4.43;;;;;;;;;;4956554;28;20211;-77
2021/04/16 12:39:19;;;;;;;7.30;6.60;;;;;;;;;;4958819;28;20233;-81
2021/04/16 12:41:50;;;;;;;5.65;5.05;;;;;;;;;;4958037;28;20197;-82
2021/04/16 12:44:37;;;;;;;5.40;4.75;;;;;;;;;;4961877;28;20290;-81
2021/04/16 12:47:26;;;;;;;8.10;4.30;;;;;;;;;;4958949;28;20191;-79
2021/04/16 12:49:53;;;;;;;4.72;4.40;;;;;;;;;;4949274;28;20951;-77
2021/04/16 12:52:20;;;;;;;6.38;5.78;;;;;;;;;;4959770;28;20610;-79
2021/04/16 12:54:49;;;;;;;5.10;4.63;;;;;;;;;;4959617;28;20195;-80
2021/04/16 12:57:20;;;;;;;5.25;4.75;;;;;;;;;;4961914;28;20656;-79
2021/04/16 12:59:46;;;;;;;4.93;4.53;;;;;;;;;;4964176;28;20289;-81
2021/04/16 13:02:32;;;;;;;5.97;5.03;;;;;;;;;;4941564;28;20529;-76
2021/04/16 13:04:59;;;;;;;5.88;5.40;;;;;;;;;;4955206;28;20470;-76
2021/04/16 13:07:25;;;;;;;4.63;4.22;;;;;;;;;;4961183;28;20678;-78
2021/04/16 13:09:51;;;;;;;5.00;4.30;;;;;;;;;;4957492;28;20222;-74
2021/04/16 13:12:18;;;;;;;5.95;4.47;;;;;;;;;;4958194;28;20481;-90
2021/04/16 13:14:45;;;;;;;8.00;5.40;;;;;;;;;;4937772;28;20198;-78
2021/04/16 13:17:16;;;;;;;7.23;4.93;;;;;;;;;;4952621;28;20235;-87
2021/04/16 13:19:43;;;;;;;5.80;4.67;;;;;;;;;;4970453;28;20477;-87
2021/04/16 13:22:11;;;;;;;4.45;3.85;;;;;;;;;;4966311;28;20470;-82
2021/04/16 13:24:37;;;;;;;5.43;4.93;;;;;;;;;;4971165;28;20274;-85
2021/04/16 13:27:04;;;;;;;4.70;4.30;;;;;;;;;;4969132;28;20183;-84
2021/04/16 13:29:31;;;;;;;4.93;4.38;;;;;;;;;;4975257;28;20286;-79
2021/04/16 13:31:57;;;;;;;6.13;5.43;;;;;;;;;;4988865;28;20209;-81
2021/04/16 13:34:23;;;;;;;9.40;7.47;;;;;;;;;;4978381;28;20654;-80
2021/04/16 13:36:49;;;;;;;5.93;4.78;;;;;;;;;;4968511;28;20286;-80
2021/04/16 13:39:15;;;;;;;6.90;4.10;;;;;;;;;;4964163;28;20315;-79
2021/04/16 13:41:41;;;;;;;4.70;4.30;;;;;;;;;;4968056;28;20447;-81
2021/04/16 13:44:08;;;;;;;6.17;4.53;;;;;;;;;;4968147;28;20533;-80
2021/04/16 13:46:35;;;;;;;5.57;4.90;;;;;;;;;;4967019;28;21615;-79
2021/04/16 13:49:03;;;;;;;5.10;4.73;;;;;;;;;;4961984;28;20609;-77
2021/04/16 13:51:31;;;;;;;3.97;3.63;;;;;;;;;;4970419;28;20525;-78
2021/04/16 13:53:57;;;;;;;4.53;3.92;;;;;;;;;;4971269;28;20179;-79
2021/04/16 13:56:23;;;;;;;4.50;4.10;;;;;;;;;;4968415;28;20724;-78
2021/04/16 13:58:49;;;;;;;3.85;3.55;;;;;;;;;;4969059;28;20485;-78
2021/04/16 14:01:15;;;;;;;5.63;4.30;;;;;;;;;;4972772;28;20209;-79
2021/04/16 14:03:46;;;;;;;3.58;3.28;;;;;;;;;;4956960;28;20454;-79
2021/04/16 14:06:18;;;;;;;5.67;5.07;;;;;;;;;;4965806;28;20187;-79
2021/04/16 14:09:00;;;;;;;6.43;4.77;;;;;;;;;;4960954;28;20770;-78
2021/04/16 14:11:27;;;;;;;3.70;3.40;;;;;;;;;;4967614;28;20451;-78
2021/04/16 14:13:53;;;;;;;4.83;4.33;;;;;;;;;;4959819;28;20438;-78
2021/04/16 14:16:25;;;;;;;3.70;3.40;;;;;;;;;;4962005;28;20479;-79
2021/04/16 14:18:52;;;;;;;4.50;3.80;;;;;;;;;;4970764;28;20572;-78
2021/04/16 14:21:19;;;;;;;4.00;3.70;;;;;;;;;;4967410;28;20521;-77
2021/04/16 14:23:46;;;;;;;6.00;3.93;;;;;;;;;;4947067;28;20954;-77
2021/04/16 14:26:12;;;;;;;3.63;3.33;;;;;;;;;;4967739;28;21013;-79
2021/04/16 14:28:38;;;;;;;3.60;3.30;;;;;;;;;;4970199;28;20445;-77
2021/04/16 14:31:05;;;;;;;3.53;3.22;;;;;;;;;;4966760;28;20427;-79
2021/04/16 14:33:33;;;;;;;3.80;3.20;;;;;;;;;;4966896;28;20334;-78
2021/04/16 14:35:59;;;;;;;4.67;3.50;;;;;;;;;;4945452;28;20449;-79
2021/04/16 14:38:26;;;;;;;4.25;3.88;;;;;;;;;;4962883;28;20584;-78
2021/04/16 14:40:52;;;;;;;4.25;3.63;;;;;;;;;;4969846;28;20179;-79
2021/04/16 14:43:18;;;;;;;3.70;3.40;;;;;;;;;;4967566;28;20558;-78
2021/04/16 14:45:46;;;;;;;3.35;3.05;;;;;;;;;;4967478;28;20489;-79
2021/04/16 14:48:12;;;;;;;3.65;3.25;;;;;;;;;;4963926;28;20215;-79
2021/04/16 14:50:38;;;;;;;4.37;3.97;;;;;;;;;;4969540;28;20179;-78
2021/04/16 14:53:07;;;;;;;3.20;2.90;;;;;;;;;;4964100;28;20529;-77
2021/04/16 14:55:35;;;;;;;3.00;2.80;;;;;;;;;;4969641;28;20444;-78
2021/04/16 14:58:01;;;;;;;3.27;3.00;;;;;;;;;;4963541;28;20494;-77
2021/04/16 15:00:29;;;;;;;3.80;3.50;;;;;;;;;;4963777;28;20954;-79
2021/04/16 15:02:56;;;;;;;3.47;3.17;;;;;;;;;;4966274;28;20438;-78
2021/04/16 15:05:23;;;;;;;3.42;3.13;;;;;;;;;;4963290;28;20434;-79
2021/04/16 15:07:54;;;;;;;6.82;3.58;;;;;;;;;;4956732;28;20223;-78
2021/04/16 15:10:22;;;;;;;3.90;3.60;;;;;;;;;;4962792;28;20183;-79
2021/04/16 15:12:49;;;;;;;3.97;3.33;;;;;;;;;;4964965;28;21016;-78
2021/04/16 15:15:26;;;;;;;3.53;2.83;;;;;;;;;;4958600;28;20191;-78
2021/04/16 15:17:54;;;;;;;3.20;2.90;;;;;;;;;;4960802;28;21056;-79
2021/04/16 15:20:23;;;;;;;3.80;3.50;;;;;;;;;;4971143;28;20486;-77
2021/04/16 15:22:49;;;;;;;3.80;3.50;;;;;;;;;;4971831;28;20493;-78
2021/04/16 15:25:16;;;;;;;3.53;3.23;;;;;;;;;;4974605;28;20451;-78
2021/04/16 15:27:48;;;;;;;5.93;3.20;;;;;;;;;;4960481;28;20871;-81
2021/04/16 15:30:37;;;;;;;4.03;3.35;;;;;;;;;;4955209;28;20190;-80
2021/04/16 15:33:09;;;;;;;3.65;3.35;;;;;;;;;;4951628;28;20214;-77
2021/04/16 15:49:06;;;;;;;3.60;3.30;;;;;;;;;;4967972;28;20204;-77
2021/04/16 15:51:33;;;;;;;3.50;3.20;;;;;;;;;;4958173;28;20189;-77
2021/04/16 15:53:59;;;;;;;3.97;3.15;;;;;;;;;;4941272;28;20192;-77
2021/04/16 15:56:28;;;;;;;3.30;2.80;;;;;;;;;;4963146;28;20235;-77
2021/04/16 15:58:55;;;;;;;4.40;3.25;;;;;;;;;;4962308;28;20477;-77
2021/04/16 16:01:24;;;;;;;2.67;2.47;;;;;;;;;;4965174;28;20270;-76
2021/04/16 16:03:50;;;;;;;3.75;3.08;;;;;;;;;;4958756;28;20204;-78
2021/04/16 16:06:15;;;;;;;3.40;3.10;;;;;;;;;;4961109;28;20646;-76
2021/04/16 16:08:42;;;;;;;3.93;3.60;;;;;;;;;;4964615;28;20447;-78
2021/04/16 16:11:13;;;;;;;3.38;2.97;;;;;;;;;;4962782;28;20945;-78
2021/04/16 16:13:41;;;;;;;3.47;3.17;;;;;;;;;;4968640;28;20208;-84
2021/04/16 16:16:10;;;;;;;4.75;2.70;;;;;;;;;;4949418;28;20237;-86
2021/04/16 16:18:38;;;;;;;3.88;2.97;;;;;;;;;;4971455;28;20214;-84
2021/04/16 16:21:06;;;;;;;3.38;2.50;;;;;;;;;;4944199;28;20276;-83
2021/04/16 16:23:32;;;;;;;3.88;2.83;;;;;;;;;;4949500;28;20668;-78
2021/04/16 16:25:58;;;;;;;3.38;3.13;;;;;;;;;;4964990;28;20661;-78
2021/04/16 16:28:26;;;;;;;11.63;2.93;;;;;;;;;;4965061;28;20225;-80
2021/04/16 16:30:54;;;;;;;5.00;2.95;;;;;;;;;;4966389;28;20790;-79
2021/04/16 16:33:20;;;;;;;3.40;3.10;;;;;;;;;;4966135;28;20189;-79
2021/04/16 16:35:47;;;;;;;2.70;2.50;;;;;;;;;;4972513;28;20183;-78
2021/04/16 16:38:13;;;;;;;3.00;2.80;;;;;;;;;;4963701;28;20504;-79
2021/04/16 16:40:41;;;;;;;4.80;3.47;;;;;;;;;;4954639;28;20205;-79
2021/04/16 16:43:10;;;;;;;6.53;3.50;;;;;;;;;;4969637;28;20189;-78
2021/04/16 16:45:38;;;;;;;3.28;2.97;;;;;;;;;;4967829;28;20200;-79
2021/04/16 16:48:04;;;;;;;3.63;3.30;;;;;;;;;;4954466;28;20214;-79
2021/04/16 16:50:33;;;;;;;3.33;3.05;;;;;;;;;;4966614;28;20277;-79
2021/04/16 16:53:00;;;;;;;3.47;3.17;;;;;;;;;;4971094;28;20193;-78
2021/04/16 16:55:26;;;;;;;3.75;3.45;;;;;;;;;;4969051;28;20593;-79
2021/04/16 16:57:54;;;;;;;3.88;2.97;;;;;;;;;;4970841;28;20689;-77
2021/04/16 17:00:28;;;;;;;3.80;3.47;;;;;;;;;;4968109;28;20194;-80
2021/04/16 17:02:54;;;;;;;3.45;3.20;;;;;;;;;;4967309;28;20267;-82
2021/04/16 17:05:20;;;;;;;6.50;3.87;;;;;;;;;;4966562;28;20183;-81
2021/04/16 17:07:46;;;;;;;2.85;2.65;;;;;;;;;;4964186;28;20431;-81
2021/04/16 17:10:13;;;;;;;4.43;3.50;;;;;;;;;;4959004;28;20185;-80
2021/04/16 17:12:40;;;;;;;9.25;3.88;;;;;;;;;;4969684;28;20194;-82
2021/04/16 17:15:07;;;;;;;9.25;3.38;;;;;;;;;;4964738;28;20187;-82
2021/04/16 17:17:33;;;;;;;3.50;3.20;;;;;;;;;;4968022;28;20183;-80
2021/04/16 17:19:59;;;;;;;3.30;3.03;;;;;;;;;;4962628;28;20545;-80
2021/04/16 17:22:25;;;;;;;3.60;3.30;;;;;;;;;;4957225;28;20528;-79
2021/04/16 17:24:51;;;;;;;3.60;3.30;;;;;;;;;;4976154;28;20443;-80
2021/04/16 17:27:28;;;;;;;4.18;3.78;;;;;;;;;;4951023;29;20941;-79
2021/04/16 17:29:55;;;;;;;3.35;3.05;;;;;;;;;;4965722;28;20192;-79
2021/04/16 17:32:21;;;;;;;3.13;2.92;;;;;;;;;;4974751;28;20527;-82
2021/04/16 17:34:48;;;;;;;3.45;3.15;;;;;;;;;;4967666;28;20190;-81
2021/04/16 17:37:14;;;;;;;4.32;3.38;;;;;;;;;;4967692;28;20180;-80
2021/04/16 17:39:40;;;;;;;3.28;2.97;;;;;;;;;;4975532;28;20291;-77
2021/04/16 17:42:13;;;;;;;4.15;3.78;;;;;;;;;;4974015;28;20188;-81
2021/04/16 17:44:39;;;;;;;7.43;3.55;;;;;;;;;;4957864;28;20194;-79
2021/04/16 17:47:05;;;;;;;4.35;3.80;;;;;;;;;;4968340;28;20692;-80
2021/04/16 17:49:32;;;;;;;3.75;3.45;;;;;;;;;;4956477;28;20530;-80
2021/04/16 17:51:58;;;;;;;3.90;3.60;;;;;;;;;;4975206;28;20181;-81
2021/04/16 17:54:24;;;;;;;4.07;3.67;;;;;;;;;;4968731;28;20297;-78
2021/04/16 17:56:51;;;;;;;3.40;2.93;;;;;;;;;;4956700;28;20922;-81
2021/04/16 17:59:18;;;;;;;3.67;3.35;;;;;;;;;;4960848;28;20487;-81
2021/04/16 18:01:45;;;;;;;4.03;3.17;;;;;;;;;;4970315;28;20186;-80
2021/04/16 18:04:11;;;;;;;3.83;3.20;;;;;;;;;;4972811;28;20192;-79
2021/04/16 18:06:39;;;;;;;4.40;3.65;;;;;;;;;;4965902;28;20249;-80
2021/04/16 18:09:06;;;;;;;7.00;3.45;;;;;;;;;;4963950;28;20190;-78
2021/04/16 18:11:32;;;;;;;3.65;3.05;;;;;;;;;;4966192;28;20194;-79